Terminal Aerodrome Forecast
Issued by NWS Duluth, MN

Home | Current Version | Previous Version | Text Only | Print | Product List | Glossary On
Versions: 1 2 3 4 5 6 7 8 9 10 11 12 13 14 15 16
801
FTUS43 KDLH 031602 AAC
TAFINL
TAF AMD
KINL 031602Z 0316/0412 36020G23KT P6SM SCT015 BKN040
     FM032000 36007G19KT P6SM BKN015
     FM040200 36007KT P6SM SKC=

USA.gov is the U.S. government's official web portal to all federal, state and local government web resources and services.